sensor_id;sensor_type;location;lat;lon;timestamp;temperature;humidity
19536;HTU21D;9913;51.168;4.124;2024-01-16T00:00:36;1.64;109.29
19536;HTU21D;9913;51.168;4.124;2024-01-16T00:03:05;1.47;109.26
19536;HTU21D;9913;51.168;4.124;2024-01-16T00:05:34;1.51;109.49
19536;HTU21D;9913;51.168;4.124;2024-01-16T00:08:03;1.54;109.22
19536;HTU21D;9913;51.168;4.124;2024-01-16T00:10:32;1.51;109.03
19536;HTU21D;9913;51.168;4.124;2024-01-16T00:13:03;1.40;109.63
19536;HTU21D;9913;51.168;4.124;2024-01-16T00:15:32;1.23;108.75
19536;HTU21D;9913;51.168;4.124;2024-01-16T00:18:01;1.33;109.12
19536;HTU21D;9913;51.168;4.124;2024-01-16T00:20:30;1.33;109.12
19536;HTU21D;9913;51.168;4.124;2024-01-16T00:22:59;0.94;109.33
19536;HTU21D;9913;51.168;4.124;2024-01-16T00:25:28;1.07;109.79
19536;HTU21D;9913;51.168;4.124;2024-01-16T00:27:57;1.12;109.09
19536;HTU21D;9913;51.168;4.124;2024-01-16T00:30:29;0.81;108.81
19536;HTU21D;9913;51.168;4.124;2024-01-16T00:32:58;0.80;110.00
19536;HTU21D;9913;51.168;4.124;2024-01-16T00:35:27;1.04;109.23
19536;HTU21D;9913;51.168;4.124;2024-01-16T00:37:56;1.05;109.20
19536;HTU21D;9913;51.168;4.124;2024-01-16T00:40:25;1.19;109.15
19536;HTU21D;9913;51.168;4.124;2024-01-16T00:42:54;1.21;110.08
19536;HTU21D;9913;51.168;4.124;2024-01-16T00:45:22;1.05;108.58
19536;HTU21D;9913;51.168;4.124;2024-01-16T00:47:53;1.23;108.96
19536;HTU21D;9913;51.168;4.124;2024-01-16T00:50:22;1.42;109.51
19536;HTU21D;9913;51.168;4.124;2024-01-16T00:52:52;1.40;109.21
19536;HTU21D;9913;51.168;4.124;2024-01-16T00:55:21;1.33;109.14
19536;HTU21D;9913;51.168;4.124;2024-01-16T00:57:51;1.32;109.05
19536;HTU21D;9913;51.168;4.124;2024-01-16T01:00:21;1.22;109.10
19536;HTU21D;9913;51.168;4.124;2024-01-16T01:02:50;1.17;109.40
19536;HTU21D;9913;51.168;4.124;2024-01-16T01:05:20;1.14;109.50
19536;HTU21D;9913;51.168;4.124;2024-01-16T01:07:53;1.16;109.33
19536;HTU21D;9913;51.168;4.124;2024-01-16T01:10:22;1.03;109.29
19536;HTU21D;9913;51.168;4.124;2024-01-16T01:12:51;1.07;109.43
19536;HTU21D;9913;51.168;4.124;2024-01-16T01:15:20;1.01;109.20
19536;HTU21D;9913;51.168;4.124;2024-01-16T01:17:50;0.87;109.21
19536;HTU21D;9913;51.168;4.124;2024-01-16T01:20:21;0.72;109.36
19536;HTU21D;9913;51.168;4.124;2024-01-16T01:22:50;0.71;109.39
19536;HTU21D;9913;51.168;4.124;2024-01-16T01:25:19;0.73;109.27
19536;HTU21D;9913;51.168;4.124;2024-01-16T01:27:48;0.65;109.53
19536;HTU21D;9913;51.168;4.124;2024-01-16T01:30:17;0.63;109.86
19536;HTU21D;9913;51.168;4.124;2024-01-16T01:32:46;0.64;109.39
19536;HTU21D;9913;51.168;4.124;2024-01-16T01:35:17;0.60;108.97
19536;HTU21D;9913;51.168;4.124;2024-01-16T01:37:49;0.59;109.27
19536;HTU21D;9913;51.168;4.124;2024-01-16T01:40:17;0.42;109.53
19536;HTU21D;9913;51.168;4.124;2024-01-16T01:42:46;0.45;109.57
19536;HTU21D;9913;51.168;4.124;2024-01-16T01:45:15;0.36;109.46
19536;HTU21D;9913;51.168;4.124;2024-01-16T01:47:44;0.39;109.18
19536;HTU21D;9913;51.168;4.124;2024-01-16T01:50:14;0.42;109.39
19536;HTU21D;9913;51.168;4.124;2024-01-16T01:52:44;0.38;109.70
19536;HTU21D;9913;51.168;4.124;2024-01-16T01:55:15;0.37;109.47
19536;HTU21D;9913;51.168;4.124;2024-01-16T01:57:44;0.30;109.55
19536;HTU21D;9913;51.168;4.124;2024-01-16T02:00:14;0.29;109.47
19536;HTU21D;9913;51.168;4.124;2024-01-16T02:02:45;0.28;109.46
19536;HTU21D;9913;51.168;4.124;2024-01-16T02:05:15;0.35;109.17
19536;HTU21D;9913;51.168;4.124;2024-01-16T02:07:44;0.28;109.67
19536;HTU21D;9913;51.168;4.124;2024-01-16T02:10:15;0.28;109.46
19536;HTU21D;9913;51.168;4.124;2024-01-16T02:12:44;0.31;109.39
19536;HTU21D;9913;51.168;4.124;2024-01-16T02:15:13;0.21;110.07
19536;HTU21D;9913;51.168;4.124;2024-01-16T02:17:42;0.20;109.82
19536;HTU21D;9913;51.168;4.124;2024-01-16T02:20:11;0.20;109.78
19536;HTU21D;9913;51.168;4.124;2024-01-16T02:22:44;0.21;109.36
19536;HTU21D;9913;51.168;4.124;2024-01-16T02:25:15;0.05;109.45
19536;HTU21D;9913;51.168;4.124;2024-01-16T02:27:45;0.10;109.87
19536;HTU21D;9913;51.168;4.124;2024-01-16T02:30:14;0.08;109.58
19536;HTU21D;9913;51.168;4.124;2024-01-16T02:32:43;0.01;109.90
19536;HTU21D;9913;51.168;4.124;2024-01-16T02:35:12;0.08;109.90
19536;HTU21D;9913;51.168;4.124;2024-01-16T02:37:42;0.05;109.49
19536;HTU21D;9913;51.168;4.124;2024-01-16T02:40:11;-0.00;109.61
19536;HTU21D;9913;51.168;4.124;2024-01-16T02:42:42;0.02;109.62
19536;HTU21D;9913;51.168;4.124;2024-01-16T02:45:11;-0.05;109.56
19536;HTU21D;9913;51.168;4.124;2024-01-16T02:47:40;-0.07;109.81
19536;HTU21D;9913;51.168;4.124;2024-01-16T02:50:09;0.02;109.75
19536;HTU21D;9913;51.168;4.124;2024-01-16T02:52:39;-0.10;109.34
19536;HTU21D;9913;51.168;4.124;2024-01-16T02:55:08;-0.02;109.50
19536;HTU21D;9913;51.168;4.124;2024-01-16T02:57:37;-0.05;109.77
19536;HTU21D;9913;51.168;4.124;2024-01-16T03:00:08;-0.09;109.60
19536;HTU21D;9913;51.168;4.124;2024-01-16T03:02:38;0.03;109.17
19536;HTU21D;9913;51.168;4.124;2024-01-16T03:05:07;-0.08;109.42
19536;HTU21D;9913;51.168;4.124;2024-01-16T03:07:36;-0.09;109.68
19536;HTU21D;9913;51.168;4.124;2024-01-16T03:10:06;-0.19;109.80
19536;HTU21D;9913;51.168;4.124;2024-01-16T03:12:35;-0.12;110.47
19536;HTU21D;9913;51.168;4.124;2024-01-16T03:15:04;-0.08;109.94
19536;HTU21D;9913;51.168;4.124;2024-01-16T03:17:35;-0.00;109.75
19536;HTU21D;9913;51.168;4.124;2024-01-16T03:20:05;-0.17;110.01
19536;HTU21D;9913;51.168;4.124;2024-01-16T03:22:34;-0.09;109.75
19536;HTU21D;9913;51.168;4.124;2024-01-16T03:25:03;-0.05;110.21
19536;HTU21D;9913;51.168;4.124;2024-01-16T03:27:32;-0.12;110.21
19536;HTU21D;9913;51.168;4.124;2024-01-16T03:30:01;-0.05;109.88
19536;HTU21D;9913;51.168;4.124;2024-01-16T03:32:31;-0.13;110.08
19536;HTU21D;9913;51.168;4.124;2024-01-16T03:35:01;-0.11;110.50
19536;HTU21D;9913;51.168;4.124;2024-01-16T03:37:30;-0.08;109.41
19536;HTU21D;9913;51.168;4.124;2024-01-16T03:39:59;-0.11;109.36
19536;HTU21D;9913;51.168;4.124;2024-01-16T03:42:28;-0.12;109.64
19536;HTU21D;9913;51.168;4.124;2024-01-16T03:44:57;-0.22;110.48
19536;HTU21D;9913;51.168;4.124;2024-01-16T03:47:26;-0.16;110.43
19536;HTU21D;9913;51.168;4.124;2024-01-16T03:49:55;-0.15;110.19
19536;HTU21D;9913;51.168;4.124;2024-01-16T03:52:25;-0.14;110.23
19536;HTU21D;9913;51.168;4.124;2024-01-16T03:54:53;-0.13;110.42
19536;HTU21D;9913;51.168;4.124;2024-01-16T03:57:22;-0.21;109.81
19536;HTU21D;9913;51.168;4.124;2024-01-16T03:59:52;-0.17;110.39
19536;HTU21D;9913;51.168;4.124;2024-01-16T04:02:20;-0.11;110.24
19536;HTU21D;9913;51.168;4.124;2024-01-16T04:04:50;-0.22;109.82
19536;HTU21D;9913;51.168;4.124;2024-01-16T04:07:19;-0.24;109.73
19536;HTU21D;9913;51.168;4.124;2024-01-16T04:09:49;-0.12;110.53
19536;HTU21D;9913;51.168;4.124;2024-01-16T04:12:18;-0.15;110.40
19536;HTU21D;9913;51.168;4.124;2024-01-16T04:14:47;-0.20;110.10
19536;HTU21D;9913;51.168;4.124;2024-01-16T04:17:16;-0.19;110.10
19536;HTU21D;9913;51.168;4.124;2024-01-16T04:19:45;-0.21;110.76
19536;HTU21D;9913;51.168;4.124;2024-01-16T04:22:14;-0.13;109.85
19536;HTU21D;9913;51.168;4.124;2024-01-16T04:24:42;-0.21;110.22
19536;HTU21D;9913;51.168;4.124;2024-01-16T04:27:13;-0.22;109.91
19536;HTU21D;9913;51.168;4.124;2024-01-16T04:29:42;-0.22;109.94
19536;HTU21D;9913;51.168;4.124;2024-01-16T04:32:11;-0.31;110.15
19536;HTU21D;9913;51.168;4.124;2024-01-16T04:34:40;-0.39;109.95
19536;HTU21D;9913;51.168;4.124;2024-01-16T04:37:08;-0.36;109.88
19536;HTU21D;9913;51.168;4.124;2024-01-16T04:39:37;-0.31;109.84
19536;HTU21D;9913;51.168;4.124;2024-01-16T04:42:06;-0.42;110.84
19536;HTU21D;9913;51.168;4.124;2024-01-16T04:44:38;-0.43;110.42
19536;HTU21D;9913;51.168;4.124;2024-01-16T04:47:07;-0.44;110.36
19536;HTU21D;9913;51.168;4.124;2024-01-16T04:49:36;-0.50;111.03
19536;HTU21D;9913;51.168;4.124;2024-01-16T04:52:05;-0.44;110.43
19536;HTU21D;9913;51.168;4.124;2024-01-16T04:54:34;-0.51;110.32
19536;HTU21D;9913;51.168;4.124;2024-01-16T04:57:03;-0.49;110.63
19536;HTU21D;9913;51.168;4.124;2024-01-16T04:59:33;-0.50;110.59
19536;HTU21D;9913;51.168;4.124;2024-01-16T05:02:03;-0.51;110.21
19536;HTU21D;9913;51.168;4.124;2024-01-16T05:04:32;-0.58;110.55
19536;HTU21D;9913;51.168;4.124;2024-01-16T05:07:01;-0.61;110.23
19536;HTU21D;9913;51.168;4.124;2024-01-16T05:09:30;-0.59;110.55
19536;HTU21D;9913;51.168;4.124;2024-01-16T05:12:00;-0.53;111.36
19536;HTU21D;9913;51.168;4.124;2024-01-16T05:14:28;-0.51;110.55
19536;HTU21D;9913;51.168;4.124;2024-01-16T05:16:57;-0.56;110.13
19536;HTU21D;9913;51.168;4.124;2024-01-16T05:19:27;-0.71;110.49
19536;HTU21D;9913;51.168;4.124;2024-01-16T05:21:56;-0.57;111.00
19536;HTU21D;9913;51.168;4.124;2024-01-16T05:24:25;-0.51;111.05
19536;HTU21D;9913;51.168;4.124;2024-01-16T05:26:54;-0.51;110.32
19536;HTU21D;9913;51.168;4.124;2024-01-16T05:29:23;-0.52;110.81
19536;HTU21D;9913;51.168;4.124;2024-01-16T05:31:52;-0.50;110.63
19536;HTU21D;9913;51.168;4.124;2024-01-16T05:34:21;-0.45;110.94
19536;HTU21D;9913;51.168;4.124;2024-01-16T05:36:52;-0.44;110.81
19536;HTU21D;9913;51.168;4.124;2024-01-16T05:39:20;-0.43;110.74
19536;HTU21D;9913;51.168;4.124;2024-01-16T05:41:50;-0.51;110.72
19536;HTU21D;9913;51.168;4.124;2024-01-16T05:44:18;-0.54;110.26
19536;HTU21D;9913;51.168;4.124;2024-01-16T05:46:47;-0.62;110.61
19536;HTU21D;9913;51.168;4.124;2024-01-16T05:49:16;-0.64;111.05
19536;HTU21D;9913;51.168;4.124;2024-01-16T05:51:46;-0.70;111.08
19536;HTU21D;9913;51.168;4.124;2024-01-16T05:54:16;-0.75;110.97
19536;HTU21D;9913;51.168;4.124;2024-01-16T05:56:45;-0.72;110.76
19536;HTU21D;9913;51.168;4.124;2024-01-16T05:59:14;-0.79;110.80
19536;HTU21D;9913;51.168;4.124;2024-01-16T06:01:43;-0.71;111.12
19536;HTU21D;9913;51.168;4.124;2024-01-16T06:04:11;-0.73;111.36
19536;HTU21D;9913;51.168;4.124;2024-01-16T06:06:41;-0.74;111.18
19536;HTU21D;9913;51.168;4.124;2024-01-16T06:09:12;-0.73;110.76
19536;HTU21D;9913;51.168;4.124;2024-01-16T06:11:43;-0.72;111.35
19536;HTU21D;9913;51.168;4.124;2024-01-16T06:14:12;-0.68;110.98
19536;HTU21D;9913;51.168;4.124;2024-01-16T06:16:47;-0.65;111.64
19536;HTU21D;9913;51.168;4.124;2024-01-16T06:19:16;-0.62;111.02
19536;HTU21D;9913;51.168;4.124;2024-01-16T06:21:45;-0.69;110.83
19536;HTU21D;9913;51.168;4.124;2024-01-16T06:24:14;-0.67;111.24
19536;HTU21D;9913;51.168;4.124;2024-01-16T06:26:45;-0.59;110.68
19536;HTU21D;9913;51.168;4.124;2024-01-16T06:29:14;-0.60;110.70
19536;HTU21D;9913;51.168;4.124;2024-01-16T06:31:58;-0.60;110.44
19536;HTU21D;9913;51.168;4.124;2024-01-16T06:34:27;-0.57;111.71
19536;HTU21D;9913;51.168;4.124;2024-01-16T06:36:56;-0.58;111.00
19536;HTU21D;9913;51.168;4.124;2024-01-16T06:39:25;-0.55;111.40
19536;HTU21D;9913;51.168;4.124;2024-01-16T06:41:55;-0.55;110.91
19536;HTU21D;9913;51.168;4.124;2024-01-16T06:44:24;-0.52;111.55
19536;HTU21D;9913;51.168;4.124;2024-01-16T06:46:53;-0.51;111.74
19536;HTU21D;9913;51.168;4.124;2024-01-16T06:49:22;-0.53;111.74
19536;HTU21D;9913;51.168;4.124;2024-01-16T06:51:50;-0.49;111.73
19536;HTU21D;9913;51.168;4.124;2024-01-16T06:54:19;-0.43;111.69
19536;HTU21D;9913;51.168;4.124;2024-01-16T06:56:50;-0.39;110.92
19536;HTU21D;9913;51.168;4.124;2024-01-16T06:59:21;-0.41;111.42
19536;HTU21D;9913;51.168;4.124;2024-01-16T07:01:50;-0.35;111.35
19536;HTU21D;9913;51.168;4.124;2024-01-16T07:04:18;-0.41;112.10
19536;HTU21D;9913;51.168;4.124;2024-01-16T07:06:47;-0.40;111.15
19536;HTU21D;9913;51.168;4.124;2024-01-16T07:09:16;-0.40;111.68
19536;HTU21D;9913;51.168;4.124;2024-01-16T07:11:47;-0.37;111.29
19536;HTU21D;9913;51.168;4.124;2024-01-16T07:14:16;-0.25;110.92
19536;HTU21D;9913;51.168;4.124;2024-01-16T07:16:47;-0.28;112.10
19536;HTU21D;9913;51.168;4.124;2024-01-16T07:19:17;-0.31;111.67
19536;HTU21D;9913;51.168;4.124;2024-01-16T07:21:46;-0.34;111.81
19536;HTU21D;9913;51.168;4.124;2024-01-16T07:24:15;-0.31;111.51
19536;HTU21D;9913;51.168;4.124;2024-01-16T07:26:44;-0.27;111.51
19536;HTU21D;9913;51.168;4.124;2024-01-16T07:29:12;-0.38;110.99
19536;HTU21D;9913;51.168;4.124;2024-01-16T07:31:41;-0.36;111.02
19536;HTU21D;9913;51.168;4.124;2024-01-16T07:34:12;-0.30;111.79
19536;HTU21D;9913;51.168;4.124;2024-01-16T07:36:44;-0.22;111.32
19536;HTU21D;9913;51.168;4.124;2024-01-16T07:39:13;-0.31;112.14
19536;HTU21D;9913;51.168;4.124;2024-01-16T07:41:43;-0.28;111.77
19536;HTU21D;9913;51.168;4.124;2024-01-16T07:44:11;-0.24;111.91
19536;HTU21D;9913;51.168;4.124;2024-01-16T07:46:40;-0.20;112.30
19536;HTU21D;9913;51.168;4.124;2024-01-16T07:49:09;-0.28;112.00
19536;HTU21D;9913;51.168;4.124;2024-01-16T07:51:39;-0.22;111.32
19536;HTU21D;9913;51.168;4.124;2024-01-16T07:54:09;-0.20;111.77
19536;HTU21D;9913;51.168;4.124;2024-01-16T07:56:40;-0.21;112.82
19536;HTU21D;9913;51.168;4.124;2024-01-16T07:59:09;-0.15;112.20
19536;HTU21D;9913;51.168;4.124;2024-01-16T08:01:38;-0.08;112.32
19536;HTU21D;9913;51.168;4.124;2024-01-16T08:04:07;-0.11;111.68
19536;HTU21D;9913;51.168;4.124;2024-01-16T08:06:36;-0.15;112.18
19536;HTU21D;9913;51.168;4.124;2024-01-16T08:09:06;-0.13;112.60
19536;HTU21D;9913;51.168;4.124;2024-01-16T08:11:35;-0.13;112.23
19536;HTU21D;9913;51.168;4.124;2024-01-16T08:14:04;-0.14;112.00
19536;HTU21D;9913;51.168;4.124;2024-01-16T08:16:33;-0.14;111.96
19536;HTU21D;9913;51.168;4.124;2024-01-16T08:19:02;-0.12;111.74
19536;HTU21D;9913;51.168;4.124;2024-01-16T08:21:32;-0.10;112.45
19536;HTU21D;9913;51.168;4.124;2024-01-16T08:24:01;-0.12;112.51
19536;HTU21D;9913;51.168;4.124;2024-01-16T08:26:31;-0.07;112.17
19536;HTU21D;9913;51.168;4.124;2024-01-16T08:29:00;-0.12;112.61
19536;HTU21D;9913;51.168;4.124;2024-01-16T08:31:29;-0.05;112.02
19536;HTU21D;9913;51.168;4.124;2024-01-16T08:33:58;-0.08;112.99
19536;HTU21D;9913;51.168;4.124;2024-01-16T08:36:27;-0.02;112.91
19536;HTU21D;9913;51.168;4.124;2024-01-16T08:38:56;0.03;112.62
19536;HTU21D;9913;51.168;4.124;2024-01-16T08:41:25;0.01;112.52
19536;HTU21D;9913;51.168;4.124;2024-01-16T08:43:55;0.05;112.72
19536;HTU21D;9913;51.168;4.124;2024-01-16T08:46:24;0.08;112.39
19536;HTU21D;9913;51.168;4.124;2024-01-16T08:48:53;0.17;113.06
19536;HTU21D;9913;51.168;4.124;2024-01-16T08:51:22;0.37;112.52
19536;HTU21D;9913;51.168;4.124;2024-01-16T08:53:53;0.36;112.52
19536;HTU21D;9913;51.168;4.124;2024-01-16T08:56:22;0.37;111.87
19536;HTU21D;9913;51.168;4.124;2024-01-16T08:58:51;0.43;112.62
19536;HTU21D;9913;51.168;4.124;2024-01-16T09:01:21;0.45;112.21
19536;HTU21D;9913;51.168;4.124;2024-01-16T09:03:51;0.45;112.29
19536;HTU21D;9913;51.168;4.124;2024-01-16T09:06:20;0.44;112.78
19536;HTU21D;9913;51.168;4.124;2024-01-16T09:08:49;0.50;113.42
19536;HTU21D;9913;51.168;4.124;2024-01-16T09:11:25;0.53;112.81
19536;HTU21D;9913;51.168;4.124;2024-01-16T09:13:55;0.57;113.78
19536;HTU21D;9913;51.168;4.124;2024-01-16T09:16:25;0.54;113.31
19536;HTU21D;9913;51.168;4.124;2024-01-16T09:18:54;0.60;113.05
19536;HTU21D;9913;51.168;4.124;2024-01-16T09:21:23;0.71;113.20
19536;HTU21D;9913;51.168;4.124;2024-01-16T09:23:52;0.65;113.42
19536;HTU21D;9913;51.168;4.124;2024-01-16T09:26:21;0.61;112.71
19536;HTU21D;9913;51.168;4.124;2024-01-16T09:28:50;0.55;113.00
19536;HTU21D;9913;51.168;4.124;2024-01-16T09:31:19;0.64;113.35
19536;HTU21D;9913;51.168;4.124;2024-01-16T09:33:49;0.81;113.32
19536;HTU21D;9913;51.168;4.124;2024-01-16T09:36:18;0.78;112.90
19536;HTU21D;9913;51.168;4.124;2024-01-16T09:38:47;0.95;112.87
19536;HTU21D;9913;51.168;4.124;2024-01-16T09:41:15;0.86;113.64
19536;HTU21D;9913;51.168;4.124;2024-01-16T09:43:44;0.98;113.93
19536;HTU21D;9913;51.168;4.124;2024-01-16T09:46:15;0.87;114.30
19536;HTU21D;9913;51.168;4.124;2024-01-16T09:48:45;0.86;113.45
19536;HTU21D;9913;51.168;4.124;2024-01-16T09:51:16;0.87;112.84
19536;HTU21D;9913;51.168;4.124;2024-01-16T09:53:45;0.83;113.16
19536;HTU21D;9913;51.168;4.124;2024-01-16T09:56:15;0.92;112.87
19536;HTU21D;9913;51.168;4.124;2024-01-16T09:58:45;0.94;112.93
19536;HTU21D;9913;51.168;4.124;2024-01-16T10:01:17;1.26;113.16
19536;HTU21D;9913;51.168;4.124;2024-01-16T10:03:46;1.37;113.48
19536;HTU21D;9913;51.168;4.124;2024-01-16T10:06:19;1.43;113.26
19536;HTU21D;9913;51.168;4.124;2024-01-16T10:08:50;1.54;113.91
19536;HTU21D;9913;51.168;4.124;2024-01-16T10:11:18;1.61;112.24
19536;HTU21D;9913;51.168;4.124;2024-01-16T10:13:48;1.76;113.95
19536;HTU21D;9913;51.168;4.124;2024-01-16T10:16:17;1.96;112.99
19536;HTU21D;9913;51.168;4.124;2024-01-16T10:19:03;1.95;113.97
19536;HTU21D;9913;51.168;4.124;2024-01-16T10:21:34;2.07;113.14
19536;HTU21D;9913;51.168;4.124;2024-01-16T10:24:11;1.90;113.15
19536;HTU21D;9913;51.168;4.124;2024-01-16T10:26:40;1.82;113.83
19536;HTU21D;9913;51.168;4.124;2024-01-16T10:29:09;1.90;112.62
19536;HTU21D;9913;51.168;4.124;2024-01-16T10:31:38;1.79;113.16
19536;HTU21D;9913;51.168;4.124;2024-01-16T10:34:19;1.96;112.94
19536;HTU21D;9913;51.168;4.124;2024-01-16T10:36:52;2.16;112.86
19536;HTU21D;9913;51.168;4.124;2024-01-16T10:39:26;2.08;112.78
19536;HTU21D;9913;51.168;4.124;2024-01-16T10:42:09;2.28;113.52
19536;HTU21D;9913;51.168;4.124;2024-01-16T10:44:52;2.25;113.13
19536;HTU21D;9913;51.168;4.124;2024-01-16T10:47:22;2.23;113.29
19536;HTU21D;9913;51.168;4.124;2024-01-16T10:49:51;2.31;112.75
19536;HTU21D;9913;51.168;4.124;2024-01-16T10:52:27;2.31;113.20
19536;HTU21D;9913;51.168;4.124;2024-01-16T10:54:58;2.32;111.94
19536;HTU21D;9913;51.168;4.124;2024-01-16T10:57:31;2.28;112.20
19536;HTU21D;9913;51.168;4.124;2024-01-16T11:00:03;2.37;112.27
19536;HTU21D;9913;51.168;4.124;2024-01-16T11:02:40;2.38;112.39
19536;HTU21D;9913;51.168;4.124;2024-01-16T11:05:13;2.35;112.71
19536;HTU21D;9913;51.168;4.124;2024-01-16T11:07:45;2.30;111.77
19536;HTU21D;9913;51.168;4.124;2024-01-16T11:10:15;2.49;112.43
19536;HTU21D;9913;51.168;4.124;2024-01-16T11:12:45;2.68;112.91
19536;HTU21D;9913;51.168;4.124;2024-01-16T11:15:15;2.46;112.00
19536;HTU21D;9913;51.168;4.124;2024-01-16T11:17:44;2.60;112.29
19536;HTU21D;9913;51.168;4.124;2024-01-16T11:20:14;2.58;113.36
19536;HTU21D;9913;51.168;4.124;2024-01-16T11:23:05;2.73;112.78
19536;HTU21D;9913;51.168;4.124;2024-01-16T11:25:34;2.61;112.74
19536;HTU21D;9913;51.168;4.124;2024-01-16T11:28:10;2.69;112.42
19536;HTU21D;9913;51.168;4.124;2024-01-16T11:30:41;2.89;112.51
19536;HTU21D;9913;51.168;4.124;2024-01-16T11:33:41;2.84;111.98
19536;HTU21D;9913;51.168;4.124;2024-01-16T11:39:20;2.88;112.48
19536;HTU21D;9913;51.168;4.124;2024-01-16T11:41:54;2.96;112.62
19536;HTU21D;9913;51.168;4.124;2024-01-16T11:44:40;2.82;111.29
19536;HTU21D;9913;51.168;4.124;2024-01-16T11:47:16;2.88;112.00
19536;HTU21D;9913;51.168;4.124;2024-01-16T11:49:46;2.95;112.89
19536;HTU21D;9913;51.168;4.124;2024-01-16T11:52:39;2.90;112.39
19536;HTU21D;9913;51.168;4.124;2024-01-16T11:55:39;2.79;112.23
19536;HTU21D;9913;51.168;4.124;2024-01-16T11:58:30;2.79;112.19
19536;HTU21D;9913;51.168;4.124;2024-01-16T12:01:05;2.96;111.68
19536;HTU21D;9913;51.168;4.124;2024-01-16T12:03:35;2.97;111.52
19536;HTU21D;9913;51.168;4.124;2024-01-16T12:06:04;3.08;111.69
19536;HTU21D;9913;51.168;4.124;2024-01-16T12:08:36;3.19;111.56
19536;HTU21D;9913;51.168;4.124;2024-01-16T12:11:07;3.14;112.93
19536;HTU21D;9913;51.168;4.124;2024-01-16T12:13:36;3.16;111.63
19536;HTU21D;9913;51.168;4.124;2024-01-16T12:16:06;3.32;112.42
19536;HTU21D;9913;51.168;4.124;2024-01-16T12:18:37;3.34;112.18
19536;HTU21D;9913;51.168;4.124;2024-01-16T12:21:15;3.39;111.81
19536;HTU21D;9913;51.168;4.124;2024-01-16T12:23:44;3.45;111.68
19536;HTU21D;9913;51.168;4.124;2024-01-16T12:26:28;3.45;111.93
19536;HTU21D;9913;51.168;4.124;2024-01-16T12:28:57;3.21;110.60
19536;HTU21D;9913;51.168;4.124;2024-01-16T12:31:27;3.18;112.74
19536;HTU21D;9913;51.168;4.124;2024-01-16T12:34:05;3.15;112.31
19536;HTU21D;9913;51.168;4.124;2024-01-16T12:36:37;3.29;112.39
19536;HTU21D;9913;51.168;4.124;2024-01-16T12:39:06;3.11;112.06
19536;HTU21D;9913;51.168;4.124;2024-01-16T12:41:42;3.33;111.58
19536;HTU21D;9913;51.168;4.124;2024-01-16T12:44:13;3.42;111.51
19536;HTU21D;9913;51.168;4.124;2024-01-16T12:46:44;3.41;111.35
19536;HTU21D;9913;51.168;4.124;2024-01-16T12:49:22;3.54;111.39
19536;HTU21D;9913;51.168;4.124;2024-01-16T12:52:19;3.56;112.19
19536;HTU21D;9913;51.168;4.124;2024-01-16T12:54:58;3.64;111.98
19536;HTU21D;9913;51.168;4.124;2024-01-16T12:57:29;3.27;111.61
19536;HTU21D;9913;51.168;4.124;2024-01-16T12:59:58;3.41;111.13
19536;HTU21D;9913;51.168;4.124;2024-01-16T13:02:29;3.46;111.71
19536;HTU21D;9913;51.168;4.124;2024-01-16T13:05:01;3.56;112.21
19536;HTU21D;9913;51.168;4.124;2024-01-16T13:07:32;3.49;111.28
19536;HTU21D;9913;51.168;4.124;2024-01-16T13:10:08;3.32;111.36
19536;HTU21D;9913;51.168;4.124;2024-01-16T13:12:41;3.30;112.01
19536;HTU21D;9913;51.168;4.124;2024-01-16T13:15:10;3.34;114.01
19536;HTU21D;9913;51.168;4.124;2024-01-16T13:17:45;3.19;111.99
19536;HTU21D;9913;51.168;4.124;2024-01-16T13:20:14;3.34;111.49
19536;HTU21D;9913;51.168;4.124;2024-01-16T13:22:43;3.36;110.87
19536;HTU21D;9913;51.168;4.124;2024-01-16T13:25:15;3.40;111.08
19536;HTU21D;9913;51.168;4.124;2024-01-16T13:27:46;3.21;111.32
19536;HTU21D;9913;51.168;4.124;2024-01-16T13:30:15;3.33;112.00
19536;HTU21D;9913;51.168;4.124;2024-01-16T13:32:48;3.25;112.20
19536;HTU21D;9913;51.168;4.124;2024-01-16T13:35:17;3.21;110.84
19536;HTU21D;9913;51.168;4.124;2024-01-16T13:37:46;3.29;111.68
19536;HTU21D;9913;51.168;4.124;2024-01-16T13:40:15;3.29;110.84
19536;HTU21D;9913;51.168;4.124;2024-01-16T13:42:51;3.33;111.46
19536;HTU21D;9913;51.168;4.124;2024-01-16T13:45:23;3.20;112.52
19536;HTU21D;9913;51.168;4.124;2024-01-16T13:47:52;3.18;111.94
19536;HTU21D;9913;51.168;4.124;2024-01-16T13:50:22;3.14;111.61
19536;HTU21D;9913;51.168;4.124;2024-01-16T13:52:51;3.05;113.05
19536;HTU21D;9913;51.168;4.124;2024-01-16T13:55:21;3.08;110.97
19536;HTU21D;9913;51.168;4.124;2024-01-16T13:57:51;3.00;111.73
19536;HTU21D;9913;51.168;4.124;2024-01-16T14:00:20;2.91;112.37
19536;HTU21D;9913;51.168;4.124;2024-01-16T14:02:49;2.93;111.91
19536;HTU21D;9913;51.168;4.124;2024-01-16T14:05:19;2.86;111.57
19536;HTU21D;9913;51.168;4.124;2024-01-16T14:07:50;2.98;111.61
19536;HTU21D;9913;51.168;4.124;2024-01-16T14:10:20;2.86;111.28
19536;HTU21D;9913;51.168;4.124;2024-01-16T14:12:51;2.82;111.52
19536;HTU21D;9913;51.168;4.124;2024-01-16T14:15:21;2.79;111.46
19536;HTU21D;9913;51.168;4.124;2024-01-16T14:17:52;2.68;111.55
19536;HTU21D;9913;51.168;4.124;2024-01-16T14:20:24;2.73;112.36
19536;HTU21D;9913;51.168;4.124;2024-01-16T14:22:56;2.69;110.74
19536;HTU21D;9913;51.168;4.124;2024-01-16T14:25:25;2.70;112.16
19536;HTU21D;9913;51.168;4.124;2024-01-16T14:28:01;2.69;111.80
19536;HTU21D;9913;51.168;4.124;2024-01-16T14:30:32;2.66;112.06
19536;HTU21D;9913;51.168;4.124;2024-01-16T14:33:02;2.68;112.15
19536;HTU21D;9913;51.168;4.124;2024-01-16T14:35:37;2.57;111.92
19536;HTU21D;9913;51.168;4.124;2024-01-16T14:38:06;2.54;111.34
19536;HTU21D;9913;51.168;4.124;2024-01-16T14:40:35;2.49;112.17
19536;HTU21D;9913;51.168;4.124;2024-01-16T14:43:05;2.41;112.77
19536;HTU21D;9913;51.168;4.124;2024-01-16T14:45:34;2.46;112.56
19536;HTU21D;9913;51.168;4.124;2024-01-16T14:48:04;2.41;112.10
19536;HTU21D;9913;51.168;4.124;2024-01-16T14:50:34;2.35;111.34
19536;HTU21D;9913;51.168;4.124;2024-01-16T14:53:03;2.29;112.64
19536;HTU21D;9913;51.168;4.124;2024-01-16T14:55:37;2.27;111.74
19536;HTU21D;9913;51.168;4.124;2024-01-16T14:58:08;2.19;112.64
19536;HTU21D;9913;51.168;4.124;2024-01-16T15:00:38;2.19;111.33
19536;HTU21D;9913;51.168;4.124;2024-01-16T15:03:07;2.08;113.83
19536;HTU21D;9913;51.168;4.124;2024-01-16T15:05:39;2.08;112.39
19536;HTU21D;9913;51.168;4.124;2024-01-16T15:08:08;2.09;111.79
19536;HTU21D;9913;51.168;4.124;2024-01-16T15:10:38;2.09;113.08
19536;HTU21D;9913;51.168;4.124;2024-01-16T15:13:08;2.09;112.50
19536;HTU21D;9913;51.168;4.124;2024-01-16T15:15:38;2.10;111.95
19536;HTU21D;9913;51.168;4.124;2024-01-16T15:18:07;1.99;111.96
19536;HTU21D;9913;51.168;4.124;2024-01-16T15:20:36;1.98;111.51
19536;HTU21D;9913;51.168;4.124;2024-01-16T15:23:05;1.88;112.84
19536;HTU21D;9913;51.168;4.124;2024-01-16T15:25:37;1.90;112.15
19536;HTU21D;9913;51.168;4.124;2024-01-16T15:28:08;1.82;112.06
19536;HTU21D;9913;51.168;4.124;2024-01-16T15:30:37;1.78;111.60
19536;HTU21D;9913;51.168;4.124;2024-01-16T15:33:06;1.80;111.72
19536;HTU21D;9913;51.168;4.124;2024-01-16T15:35:36;1.68;112.46
19536;HTU21D;9913;51.168;4.124;2024-01-16T15:38:05;1.62;111.88
19536;HTU21D;9913;51.168;4.124;2024-01-16T15:40:34;1.56;112.84
19536;HTU21D;9913;51.168;4.124;2024-01-16T15:43:03;1.62;111.13
19536;HTU21D;9913;51.168;4.124;2024-01-16T15:45:33;1.53;112.13
19536;HTU21D;9913;51.168;4.124;2024-01-16T15:48:04;1.47;111.49